createdAt,value
2023-01-01T00:01:27.767Z,18.80
2023-01-01T00:03:59.805Z,17.60
2023-01-01T00:06:30.376Z,17.50
2023-01-01T00:09:19.089Z,17.20
2023-01-01T00:11:49.792Z,23.00
2023-01-01T00:14:20.826Z,33.60
2023-01-01T00:16:51.383Z,47.70
2023-01-01T00:19:22.110Z,58.10
2023-01-01T00:21:53.974Z,57.20
2023-01-01T00:24:25.175Z,66.20
2023-01-01T00:26:55.800Z,68.00
2023-01-01T00:29:27.262Z,73.00
2023-01-01T00:31:57.804Z,70.90
2023-01-01T00:34:29.135Z,61.80
2023-01-01T00:37:00.275Z,62.30
2023-01-01T00:39:31.724Z,65.80
2023-01-01T00:42:02.202Z,61.60
2023-01-01T00:44:33.289Z,70.80
2023-01-01T00:47:03.821Z,72.00
2023-01-01T00:49:34.761Z,73.50
2023-01-01T00:52:05.591Z,65.20
2023-01-01T00:54:36.276Z,68.50
2023-01-01T00:57:06.890Z,62.70
2023-01-01T00:59:37.998Z,68.70
2023-01-01T01:02:08.623Z,76.30
2023-01-01T01:04:39.667Z,72.40
2023-01-01T01:07:10.196Z,86.80
2023-01-01T01:09:41.142Z,85.50
2023-01-01T01:12:18.031Z,68.70
2023-01-01T01:14:49.785Z,68.70
2023-01-01T01:17:20.279Z,69.60
2023-01-01T01:19:51.255Z,76.30
2023-01-01T01:22:28.050Z,75.90
2023-01-01T01:24:59.737Z,76.60
2023-01-01T01:27:30.525Z,82.90
2023-01-01T01:30:01.484Z,82.20
2023-01-01T01:32:32.073Z,76.70
2023-01-01T01:35:02.906Z,74.40
2023-01-01T01:37:33.435Z,77.10
2023-01-01T01:40:04.909Z,75.90
2023-01-01T01:42:35.367Z,78.50
2023-01-01T01:45:07.419Z,79.20
2023-01-01T01:47:40.675Z,84.70
2023-01-01T01:52:42.773Z,91.80
2023-01-01T01:55:13.898Z,80.50
2023-01-01T01:57:44.546Z,78.10
2023-01-01T02:00:16.926Z,79.60
2023-01-01T02:02:52.415Z,74.70
2023-01-01T02:05:23.911Z,76.80
2023-01-01T02:07:55.100Z,74.50
2023-01-01T02:10:27.620Z,83.50
2023-01-01T02:12:58.304Z,77.40
2023-01-01T02:15:30.732Z,82.00
2023-01-01T02:18:02.957Z,68.50
2023-01-01T02:20:45.436Z,76.50
2023-01-01T02:23:32.389Z,77.80
2023-01-01T02:26:11.033Z,78.60
2023-01-01T02:28:50.134Z,75.70
2023-01-01T02:31:23.949Z,64.20
2023-01-01T02:33:56.537Z,74.90
2023-01-01T02:36:27.900Z,61.50
2023-01-01T02:38:59.401Z,71.60
2023-01-01T02:41:32.275Z,58.70
2023-01-01T02:46:34.370Z,66.30
2023-01-01T02:49:10.321Z,70.10
2023-01-01T02:51:48.394Z,49.90
2023-01-01T02:54:26.756Z,39.60
2023-01-01T02:56:59.873Z,43.90
2023-01-01T02:59:51.854Z,39.60
2023-01-01T03:02:25.747Z,37.70
2023-01-01T03:05:02.714Z,45.70
2023-01-01T03:07:37.307Z,46.80
2023-01-01T03:10:11.598Z,40.40
2023-01-01T03:12:45.339Z,40.00
2023-01-01T03:15:26.620Z,35.50
2023-01-01T03:18:00.511Z,42.00
2023-01-01T03:20:32.926Z,44.10
2023-01-01T03:23:07.931Z,46.00
2023-01-01T03:25:40.416Z,44.60
2023-01-01T03:28:13.749Z,43.00
2023-01-01T03:30:47.320Z,39.70
2023-01-01T03:33:19.416Z,43.20
2023-01-01T03:35:51.732Z,46.20
2023-01-01T03:38:25.540Z,48.30
2023-01-01T03:40:59.443Z,46.80
2023-01-01T03:43:33.358Z,43.30
2023-01-01T03:46:05.765Z,46.60
2023-01-01T03:49:02.758Z,52.10
2023-01-01T03:51:40.664Z,52.00
2023-01-01T03:54:15.661Z,56.50
2023-01-01T03:56:47.976Z,51.50
2023-01-01T03:59:23.226Z,44.20
2023-01-01T04:01:55.111Z,41.40
2023-01-01T04:04:27.041Z,43.80
2023-01-01T04:07:09.356Z,48.30
2023-01-01T04:09:50.728Z,51.20
2023-01-01T04:12:22.150Z,50.40
2023-01-01T04:14:52.903Z,46.10
2023-01-01T04:17:23.753Z,42.50
2023-01-01T04:19:55.421Z,34.80
2023-01-01T04:22:26.677Z,36.40
2023-01-01T04:24:57.475Z,46.30
2023-01-01T04:27:28.818Z,40.00
2023-01-01T04:29:59.461Z,39.00
2023-01-01T04:32:30.600Z,38.40
2023-01-01T04:35:01.952Z,42.30
2023-01-01T04:37:32.711Z,40.70
2023-01-01T04:40:03.511Z,45.40
2023-01-01T04:42:34.309Z,48.50
2023-01-01T04:45:05.190Z,39.00
2023-01-01T04:47:35.871Z,39.40
2023-01-01T04:50:07.229Z,37.80
2023-01-01T04:52:37.932Z,41.30
2023-01-01T04:55:09.707Z,46.50
2023-01-01T04:57:40.412Z,47.40
2023-01-01T05:00:13.867Z,44.20
2023-01-01T05:02:44.650Z,43.70
2023-01-01T05:05:15.657Z,41.10
2023-01-01T05:07:46.598Z,40.70
2023-01-01T05:10:17.425Z,38.40
2023-01-01T05:12:48.368Z,41.70
2023-01-01T05:15:19.205Z,38.90
2023-01-01T05:17:49.825Z,42.90
2023-01-01T05:20:20.669Z,39.30
2023-01-01T05:22:51.709Z,42.50
2023-01-01T05:25:22.649Z,30.60
2023-01-01T05:27:53.900Z,37.50
2023-01-01T05:30:26.274Z,32.20
2023-01-01T05:32:57.415Z,36.50
2023-01-01T05:35:28.849Z,41.50
2023-01-01T05:38:00.301Z,44.20
2023-01-01T05:40:31.650Z,42.60
2023-01-01T05:43:02.380Z,46.80
2023-01-01T05:45:33.247Z,49.20
2023-01-01T05:48:04.378Z,56.30
2023-01-01T05:50:35.166Z,50.80
2023-01-01T05:53:06.150Z,45.30
2023-01-01T05:55:36.871Z,49.40
2023-01-01T05:58:07.805Z,51.10
2023-01-01T06:00:38.538Z,49.70
2023-01-01T06:03:09.226Z,47.50
2023-01-01T06:05:40.054Z,45.10
2023-01-01T06:08:10.641Z,46.80
2023-01-01T06:10:41.484Z,36.20
2023-01-01T06:13:13.515Z,34.30
2023-01-01T06:15:44.475Z,52.30
2023-01-01T06:18:15.108Z,42.00
2023-01-01T06:20:45.859Z,40.20
2023-01-01T06:23:16.416Z,39.00
2023-01-01T06:25:47.726Z,36.40
2023-01-01T06:28:18.455Z,35.40
2023-01-01T06:30:49.327Z,35.70
2023-01-01T06:33:20.273Z,30.60
2023-01-01T06:35:51.065Z,36.20
2023-01-01T06:38:22.831Z,34.50
2023-01-01T06:41:01.580Z,39.30
2023-01-01T06:43:32.675Z,33.90
2023-01-01T06:46:05.257Z,22.90
2023-01-01T06:48:36.816Z,26.70
2023-01-01T06:51:08.774Z,26.60
2023-01-01T06:53:39.913Z,25.10
2023-01-01T06:56:11.509Z,25.90
2023-01-01T06:58:42.196Z,25.80
2023-01-01T07:01:14.154Z,27.40
2023-01-01T07:03:45.514Z,27.20
2023-01-01T07:06:16.467Z,26.20
2023-01-01T07:08:47.090Z,27.30
2023-01-01T07:11:17.807Z,25.00
2023-01-01T07:13:48.606Z,22.50
2023-01-01T07:16:19.391Z,25.10
2023-01-01T07:18:50.812Z,20.90
2023-01-01T07:21:29.522Z,22.50
2023-01-01T07:24:01.730Z,24.20
2023-01-01T07:26:33.426Z,24.10
2023-01-01T07:29:07.801Z,22.80
2023-01-01T07:31:40.555Z,22.30
2023-01-01T07:34:14.124Z,20.90
2023-01-01T07:36:44.914Z,22.30
2023-01-01T07:39:15.855Z,21.80
2023-01-01T07:41:47.097Z,18.70
2023-01-01T07:44:17.637Z,17.40
2023-01-01T07:46:48.710Z,21.50
2023-01-01T07:49:19.661Z,18.50
2023-01-01T07:51:51.346Z,19.80
2023-01-01T07:54:21.985Z,22.10
2023-01-01T07:56:52.784Z,21.70
2023-01-01T07:59:23.357Z,19.60
2023-01-01T08:01:54.317Z,19.60
2023-01-01T08:04:26.893Z,19.70
2023-01-01T08:06:57.702Z,19.10
2023-01-01T08:09:28.223Z,19.30
2023-01-01T08:11:59.584Z,21.20
2023-01-01T08:14:30.199Z,20.30
2023-01-01T08:17:01.163Z,16.80
2023-01-01T08:19:31.679Z,19.00
2023-01-01T08:22:02.908Z,23.10
2023-01-01T08:24:33.348Z,18.50
2023-01-01T08:27:04.584Z,20.80
2023-01-01T08:29:35.121Z,20.70
2023-01-01T08:32:06.661Z,17.70
2023-01-01T08:34:37.411Z,19.00
2023-01-01T08:37:08.640Z,20.40
2023-01-01T08:39:39.081Z,19.50
2023-01-01T08:42:12.407Z,21.70
2023-01-01T08:44:43.301Z,20.40
2023-01-01T08:47:20.199Z,21.20
2023-01-01T08:49:51.026Z,17.70
2023-01-01T08:52:22.731Z,20.20
2023-01-01T08:54:53.507Z,19.00
2023-01-01T08:57:24.354Z,22.00
2023-01-01T08:59:54.971Z,20.50
2023-01-01T09:02:26.201Z,20.50
2023-01-01T09:04:56.844Z,20.10
2023-01-01T09:07:27.778Z,21.80
2023-01-01T09:09:58.313Z,18.50
2023-01-01T09:12:29.470Z,18.00
2023-01-01T09:15:00.007Z,21.40
2023-01-01T09:17:30.920Z,19.50
2023-01-01T09:20:01.554Z,19.60
2023-01-01T09:22:32.595Z,19.10
2023-01-01T09:25:03.139Z,22.80
2023-01-01T09:27:34.057Z,20.90
2023-01-01T09:30:05.119Z,21.90
2023-01-01T09:32:36.081Z,17.10
2023-01-01T09:35:07.712Z,19.70
2023-01-01T09:37:38.530Z,19.90
2023-01-01T09:40:15.420Z,22.80
2023-01-01T09:42:50.400Z,22.80
2023-01-01T09:45:24.547Z,23.20
2023-01-01T09:47:56.640Z,20.40
2023-01-01T09:50:31.042Z,21.10
2023-01-01T09:53:02.469Z,20.10
2023-01-01T09:55:45.373Z,17.90
2023-01-01T09:58:16.681Z,21.10
2023-01-01T10:00:50.177Z,19.90
2023-01-01T10:03:34.507Z,22.80
2023-01-01T10:06:08.817Z,19.50
2023-01-01T10:08:44.541Z,18.30
2023-01-01T10:11:19.550Z,19.10
2023-01-01T10:13:51.854Z,19.20
2023-01-01T10:16:30.665Z,17.00
2023-01-01T10:19:03.483Z,19.10
2023-01-01T10:21:35.568Z,16.80
2023-01-01T10:24:11.915Z,21.30
2023-01-01T10:26:42.643Z,19.70
2023-01-01T10:29:16.303Z,20.00
2023-01-01T10:31:47.438Z,19.10
2023-01-01T10:34:20.670Z,19.10
2023-01-01T10:36:53.421Z,18.50
2023-01-01T10:39:24.549Z,18.30
2023-01-01T10:41:55.154Z,21.10
2023-01-01T10:44:28.319Z,17.20
2023-01-01T10:47:00.243Z,19.00
2023-01-01T10:49:31.121Z,19.40
2023-01-01T10:52:02.973Z,18.50
2023-01-01T10:54:38.421Z,18.50
2023-01-01T10:57:19.908Z,15.70
2023-01-01T10:59:54.436Z,22.40
2023-01-01T11:02:26.490Z,15.50
2023-01-01T11:05:21.464Z,15.90
2023-01-01T11:07:52.853Z,20.00
2023-01-01T11:10:25.844Z,18.30
2023-01-01T11:13:05.496Z,16.30
2023-01-01T11:15:39.914Z,16.00
2023-01-01T11:18:13.817Z,17.30
2023-01-01T11:20:44.889Z,16.60
2023-01-01T11:23:28.726Z,16.20
2023-01-01T11:26:04.371Z,15.90
2023-01-01T11:28:35.759Z,14.90
2023-01-01T11:31:11.396Z,14.30
2023-01-01T11:33:45.424Z,16.80
2023-01-01T11:36:23.828Z,16.40
2023-01-01T11:39:05.897Z,14.60
2023-01-01T11:41:43.847Z,16.70
2023-01-01T11:44:23.431Z,13.40
2023-01-01T11:46:54.321Z,13.70
2023-01-01T11:49:27.232Z,13.90
2023-01-01T11:51:58.839Z,11.50
2023-01-01T11:54:36.221Z,14.30
2023-01-01T11:57:14.853Z,11.80
2023-01-01T11:59:48.421Z,11.50
2023-01-01T12:02:34.275Z,11.40
2023-01-01T12:05:10.767Z,11.70
2023-01-01T12:07:44.479Z,14.00
2023-01-01T12:10:18.866Z,12.70
2023-01-01T12:12:52.749Z,13.90
2023-01-01T12:15:27.787Z,13.40
2023-01-01T12:18:02.747Z,15.10
2023-01-01T12:20:35.004Z,12.70
2023-01-01T12:23:06.032Z,13.40
2023-01-01T12:25:38.923Z,13.60
2023-01-01T12:28:16.873Z,14.30
2023-01-01T12:30:51.018Z,12.80
2023-01-01T12:33:28.672Z,14.80
2023-01-01T12:36:04.591Z,13.60
2023-01-01T12:38:46.063Z,13.50
2023-01-01T12:41:24.676Z,15.70
2023-01-01T12:44:02.344Z,15.50
2023-01-01T12:46:40.733Z,13.40
2023-01-01T12:49:22.240Z,16.10
2023-01-01T12:51:58.448Z,13.40
2023-01-01T12:54:44.608Z,13.70
2023-01-01T13:11:03.731Z,13.40
2023-01-01T13:13:34.723Z,14.00
2023-01-01T13:16:05.938Z,12.20
2023-01-01T13:18:37.190Z,11.30
2023-01-01T13:21:20.028Z,13.70
2023-01-01T13:23:52.475Z,13.60
2023-01-01T13:26:36.495Z,15.60
2023-01-01T13:29:24.686Z,15.10
2023-01-01T13:32:08.623Z,13.20
2023-01-01T13:35:00.634Z,16.60
2023-01-01T13:37:45.087Z,13.60
2023-01-01T13:40:50.397Z,15.50
2023-01-01T13:43:29.836Z,16.60
2023-01-01T13:46:12.362Z,18.50
2023-01-01T13:48:51.374Z,17.80
2023-01-01T13:54:49.450Z,15.00
2023-01-01T13:57:30.562Z,13.80
2023-01-01T14:00:05.960Z,16.40
2023-01-01T14:02:45.451Z,14.10
2023-01-01T14:05:18.291Z,15.50
2023-01-01T14:07:52.303Z,16.50
2023-01-01T14:10:26.389Z,17.00
2023-01-01T14:12:59.355Z,15.80
2023-01-01T14:15:31.114Z,14.00
2023-01-01T14:18:02.859Z,17.20
2023-01-01T14:20:35.882Z,15.30
2023-01-01T14:23:10.724Z,13.90
2023-01-01T14:25:42.364Z,12.60
2023-01-01T14:28:16.334Z,13.70
2023-01-01T14:30:47.379Z,15.10
2023-01-01T14:33:28.497Z,13.30
2023-01-01T14:36:00.644Z,16.30
2023-01-01T14:38:33.537Z,15.30
2023-01-01T14:41:12.982Z,16.20
2023-01-01T14:43:44.766Z,15.30
2023-01-01T14:46:18.123Z,19.90
2023-01-01T14:48:51.027Z,16.40
2023-01-01T14:51:23.808Z,16.60
2023-01-01T14:53:55.602Z,30.50
2023-01-01T14:56:27.989Z,18.10
2023-01-01T15:01:28.949Z,17.00
2023-01-01T15:04:01.245Z,15.50
2023-01-01T15:06:33.665Z,18.30
2023-01-01T15:09:04.353Z,15.00
2023-01-01T15:11:35.496Z,18.30
2023-01-01T15:14:06.036Z,19.50
2023-01-01T15:16:40.570Z,18.00
2023-01-01T15:19:20.702Z,16.00
2023-01-01T15:21:51.635Z,14.60
2023-01-01T15:24:26.362Z,20.70
2023-01-01T15:26:58.011Z,16.10
2023-01-01T15:29:32.991Z,20.20
2023-01-01T15:32:05.130Z,16.90
2023-01-01T15:34:37.181Z,17.20
2023-01-01T15:37:10.287Z,16.40
2023-01-01T15:39:51.762Z,17.50
2023-01-01T15:42:30.032Z,20.10
2023-01-01T15:45:15.040Z,17.40
2023-01-01T15:47:47.655Z,17.40
2023-01-01T15:50:23.308Z,17.70
2023-01-01T15:52:56.208Z,18.20
2023-01-01T15:55:27.651Z,16.60
2023-01-01T15:57:59.198Z,17.30
2023-01-01T16:00:30.807Z,18.40
2023-01-01T16:03:03.238Z,25.10
2023-01-01T16:05:33.908Z,20.80
2023-01-01T16:08:05.576Z,22.90
2023-01-01T16:10:36.077Z,24.30
2023-01-01T16:13:07.666Z,22.80
2023-01-01T16:15:38.363Z,20.80
2023-01-01T16:18:13.444Z,22.80
2023-01-01T16:20:43.858Z,19.70
2023-01-01T16:23:14.985Z,20.40
2023-01-01T16:25:45.513Z,25.20
2023-01-01T16:28:16.444Z,23.20
2023-01-01T16:30:47.889Z,22.30
2023-01-01T16:33:20.777Z,22.30
2023-01-01T16:35:51.212Z,23.70
2023-01-01T16:38:23.164Z,27.30
2023-01-01T16:40:53.999Z,25.70
2023-01-01T16:43:24.956Z,26.80
2023-01-01T16:45:55.714Z,28.90
2023-01-01T16:48:26.928Z,23.40
2023-01-01T16:50:57.559Z,25.90
2023-01-01T16:53:28.691Z,26.20
2023-01-01T16:55:59.741Z,29.00
2023-01-01T17:01:21.915Z,30.10
2023-01-01T17:03:53.745Z,23.30
2023-01-01T17:06:24.433Z,27.10
2023-01-01T17:08:55.519Z,28.30
2023-01-01T17:11:25.953Z,26.10
2023-01-01T17:13:56.979Z,29.30
2023-01-01T17:16:34.453Z,31.50
2023-01-01T17:19:16.779Z,31.40
2023-01-01T17:21:49.906Z,28.50
2023-01-01T17:24:21.736Z,27.80
2023-01-01T17:26:53.305Z,29.30
2023-01-01T17:29:25.040Z,25.10
2023-01-01T17:31:55.558Z,26.90
2023-01-01T17:34:26.595Z,25.40
2023-01-01T17:36:57.131Z,26.30
2023-01-01T17:39:28.376Z,28.30
2023-01-01T17:41:59.346Z,28.90
2023-01-01T17:44:31.106Z,26.20
2023-01-01T17:47:02.005Z,27.20
2023-01-01T17:49:33.633Z,26.30
2023-01-01T17:52:04.295Z,28.80
2023-01-01T17:54:35.605Z,28.40
2023-01-01T17:57:06.119Z,32.70
2023-01-01T17:59:37.484Z,31.80
2023-01-01T18:02:11.946Z,29.50
2023-01-01T18:04:43.189Z,32.90
2023-01-01T18:07:13.809Z,31.70
2023-01-01T18:09:44.957Z,30.50
2023-01-01T18:12:15.578Z,28.50
2023-01-01T18:14:46.520Z,29.40
2023-01-01T18:17:17.011Z,36.40
2023-01-01T18:19:48.512Z,36.90
2023-01-01T18:22:19.129Z,38.80
2023-01-01T18:24:50.485Z,33.50
2023-01-01T18:27:21.516Z,35.90
2023-01-01T18:29:52.448Z,34.50
2023-01-01T18:32:22.940Z,31.10
2023-01-01T18:34:53.869Z,37.90
2023-01-01T18:37:25.065Z,34.10
2023-01-01T18:39:59.851Z,38.60
2023-01-01T18:42:36.294Z,41.40
2023-01-01T18:45:14.778Z,40.30
2023-01-01T18:47:46.893Z,41.40
2023-01-01T18:50:23.933Z,41.90
2023-01-01T18:52:55.775Z,39.40
2023-01-01T18:55:28.318Z,34.10
2023-01-01T18:58:01.008Z,42.70
2023-01-01T19:00:33.521Z,36.10
2023-01-01T19:03:05.149Z,39.90
2023-01-01T19:05:37.029Z,41.30
2023-01-01T19:08:14.059Z,42.80
2023-01-01T19:10:46.344Z,41.50
2023-01-01T19:13:19.014Z,44.20
2023-01-01T19:15:51.618Z,37.70
2023-01-01T19:18:24.001Z,38.30
2023-01-01T19:20:59.720Z,38.10
2023-01-01T19:23:31.455Z,34.90
2023-01-01T19:26:04.178Z,37.70
2023-01-01T19:28:35.859Z,44.70
2023-01-01T19:31:07.650Z,47.70
2023-01-01T19:33:38.294Z,46.80
2023-01-01T19:36:10.260Z,47.00
2023-01-01T19:38:40.923Z,47.70
2023-01-01T19:41:12.064Z,49.10
2023-01-01T19:43:42.626Z,45.80
2023-01-01T19:46:14.240Z,45.70
2023-01-01T19:48:44.986Z,42.60
2023-01-01T19:51:16.137Z,44.60
2023-01-01T19:53:46.653Z,47.40
2023-01-01T19:56:18.164Z,46.60
2023-01-01T19:58:49.446Z,48.90
2023-01-01T20:01:21.019Z,49.20
2023-01-01T20:03:54.501Z,37.90
2023-01-01T20:06:26.762Z,54.90
2023-01-01T20:08:57.295Z,50.20
2023-01-01T20:11:32.023Z,53.00
2023-01-01T20:14:02.738Z,52.20
2023-01-01T20:16:34.896Z,53.00
2023-01-01T20:19:05.466Z,54.90
2023-01-01T20:21:54.715Z,50.20
2023-01-01T20:24:25.351Z,44.30
2023-01-01T20:26:57.006Z,47.00
2023-01-01T20:29:28.768Z,50.70
2023-01-01T20:32:00.234Z,56.60
2023-01-01T20:34:31.015Z,71.30
2023-01-01T20:37:20.113Z,71.60
2023-01-01T20:39:50.759Z,67.20
2023-01-01T20:42:22.256Z,69.40
2023-01-01T20:44:52.836Z,74.00
2023-01-01T20:47:24.479Z,59.00
2023-01-01T20:49:56.991Z,66.50
2023-01-01T20:52:28.777Z,61.40
2023-01-01T20:54:59.463Z,57.30
2023-01-01T20:57:30.492Z,58.60
2023-01-01T21:00:01.220Z,61.80
2023-01-01T21:02:32.805Z,60.40
2023-01-01T21:05:07.862Z,66.80
2023-01-01T21:07:39.153Z,67.70
2023-01-01T21:10:10.563Z,66.10
2023-01-01T21:12:41.783Z,49.80
2023-01-01T21:15:15.242Z,56.30
2023-01-01T21:17:46.072Z,76.20
2023-01-01T21:20:16.810Z,67.60
2023-01-01T21:22:48.218Z,69.70
2023-01-01T21:25:49.829Z,59.40
2023-01-01T21:28:14.610Z,72.60
2023-01-01T21:30:48.731Z,67.40
2023-01-01T21:33:24.013Z,63.70
2023-01-01T21:35:54.742Z,63.50
2023-01-01T21:38:26.660Z,63.50
2023-01-01T21:40:58.774Z,69.50
2023-01-01T21:43:37.577Z,70.80
2023-01-01T21:46:19.973Z,60.10
2023-01-01T21:48:55.769Z,81.80
2023-01-01T21:51:27.375Z,67.90
2023-01-01T21:54:03.869Z,74.00
2023-01-01T21:56:36.299Z,72.70
2023-01-01T21:59:29.146Z,82.50
2023-01-01T22:02:16.839Z,70.30
2023-01-01T22:04:48.315Z,75.00
2023-01-01T22:10:15.661Z,76.40
2023-01-01T22:15:29.083Z,80.10
2023-01-01T22:18:10.672Z,70.30
2023-01-01T22:20:41.928Z,76.70
2023-01-01T22:23:18.372Z,75.20
2023-01-01T22:25:49.487Z,73.00
2023-01-01T22:28:22.882Z,75.40
2023-01-01T22:30:55.828Z,79.80
2023-01-01T22:33:28.669Z,72.80
2023-01-01T22:35:59.908Z,65.20
2023-01-01T22:38:34.217Z,67.80
2023-01-01T22:41:04.881Z,71.70
2023-01-01T22:43:36.109Z,62.20
2023-01-01T22:46:13.035Z,69.80
2023-01-01T22:48:43.546Z,66.00
2023-01-01T22:51:18.161Z,68.80
2023-01-01T22:53:48.927Z,68.70
2023-01-01T22:56:20.550Z,72.40
2023-01-01T22:58:57.321Z,67.70
2023-01-01T23:01:28.801Z,61.00
2023-01-01T23:03:59.492Z,65.20
2023-01-01T23:06:30.356Z,69.10
2023-01-01T23:09:00.830Z,73.60
2023-01-01T23:11:32.504Z,74.00
2023-01-01T23:14:20.960Z,70.20
2023-01-01T23:16:51.982Z,71.00
2023-01-01T23:19:22.508Z,71.70
2023-01-01T23:21:53.336Z,74.20
2023-01-01T23:24:24.379Z,80.00
2023-01-01T23:26:55.456Z,70.80
2023-01-01T23:29:28.283Z,70.10
2023-01-01T23:31:59.345Z,67.50
2023-01-01T23:34:30.074Z,68.60
2023-01-01T23:37:01.076Z,66.60
2023-01-01T23:39:31.541Z,74.30
2023-01-01T23:42:02.682Z,64.60
2023-01-01T23:44:33.111Z,75.00
2023-01-01T23:47:04.612Z,70.00
2023-01-01T23:49:35.150Z,68.90
2023-01-01T23:52:06.640Z,62.30
2023-01-01T23:54:39.158Z,76.70
2023-01-01T23:57:10.059Z,72.60
2023-01-01T23:59:40.937Z,72.90
